GB-0472 weather

Titsey Airstrip
England, United Kingdom

Public forecast

Using degrees Celsius for public forecast. Weather courtesy of forecast.io.

METAR (pilot weather report)

Report is more than 2 hours old.

Closest report is London Biggin Hill Airport, 3.3 nm (6.2 km) N. Retrieved 2019/03/22 22:20 UTC (4 hours ago):

EGKB 222220Z 21005KT 9999 BKN022 08/07 Q1028

TAF (pilot weather forecast)

Forecast is more than 12 hours old.

Closest forecast is London Biggin Hill Airport, 3.3 nm (6.2 km) N. Retrieved 2018/10/15 23:27 UTC (5 months ago):

TAF TAF EGKB 152321Z 1523/1622 CNL